createdAt,value
2018-11-07T00:00:20.288Z,112.23
2018-11-07T00:02:49.715Z,100.17
2018-11-07T00:05:20.116Z,97.83
2018-11-07T00:07:49.864Z,100.00
2018-11-07T00:10:19.116Z,93.43
2018-11-07T00:12:48.408Z,85.83
2018-11-07T00:15:17.956Z,76.50
2018-11-07T00:17:47.080Z,81.53
2018-11-07T00:20:16.526Z,82.10
2018-11-07T00:22:46.048Z,73.43
2018-11-07T00:25:15.467Z,71.80
2018-11-07T00:27:44.876Z,75.17
2018-11-07T00:30:14.063Z,64.60
2018-11-07T00:32:43.174Z,61.73
2018-11-07T00:35:12.914Z,58.93
2018-11-07T00:37:42.781Z,55.23
2018-11-07T00:40:12.701Z,49.60
2018-11-07T00:42:42.144Z,44.53
2018-11-07T00:45:12.686Z,48.10
2018-11-07T00:47:42.628Z,45.30
2018-11-07T00:50:15.500Z,40.47
2018-11-07T00:52:45.195Z,41.27
2018-11-07T00:55:15.181Z,42.00
2018-11-07T00:57:44.514Z,43.63
2018-11-07T01:00:16.207Z,32.93
2018-11-07T01:02:45.955Z,38.77
2018-11-07T01:05:15.197Z,51.07
2018-11-07T01:07:45.350Z,50.97
2018-11-07T01:10:14.391Z,47.13
2018-11-07T01:12:43.735Z,54.07
2018-11-07T01:15:13.651Z,48.70
2018-11-07T01:17:42.896Z,40.67
2018-11-07T01:20:13.474Z,32.57
2018-11-07T01:22:42.552Z,34.10
2018-11-07T01:25:11.774Z,31.47
2018-11-07T01:27:41.318Z,33.63
2018-11-07T01:30:12.276Z,34.30
2018-11-07T01:32:41.570Z,29.83
2018-11-07T01:35:10.661Z,26.20
2018-11-07T01:37:39.796Z,26.57
2018-11-07T01:40:10.337Z,24.90
2018-11-07T01:42:39.481Z,27.27
2018-11-07T01:45:09.642Z,30.10
2018-11-07T01:47:38.976Z,33.30
2018-11-07T01:50:10.081Z,36.57
2018-11-07T01:52:39.612Z,35.77
2018-11-07T01:55:09.584Z,36.53
2018-11-07T01:57:38.877Z,35.07
2018-11-07T02:00:10.721Z,31.00
2018-11-07T02:02:40.720Z,29.63
2018-11-07T02:05:10.062Z,31.10
2018-11-07T02:07:39.140Z,41.33
2018-11-07T02:10:09.421Z,33.93
2018-11-07T02:12:38.877Z,97.33
2018-11-07T02:15:08.645Z,44.73
2018-11-07T02:17:38.019Z,43.93
2018-11-07T02:20:08.253Z,51.20
2018-11-07T02:22:37.656Z,257.23
2018-11-07T02:25:07.232Z,145.83
2018-11-07T02:27:36.372Z,150.60
2018-11-07T02:30:07.103Z,115.50
2018-11-07T02:32:36.555Z,91.27
2018-11-07T02:35:05.786Z,59.93
2018-11-07T02:37:34.962Z,46.73
2018-11-07T02:40:04.141Z,41.50
2018-11-07T02:42:33.554Z,45.67
2018-11-07T02:45:02.822Z,108.13
2018-11-07T02:47:32.464Z,73.23
2018-11-07T02:50:01.860Z,75.83
2018-11-07T02:52:31.576Z,59.13
2018-11-07T02:55:00.929Z,49.30
2018-11-07T02:57:30.140Z,48.17
2018-11-07T02:59:59.475Z,41.80
2018-11-07T03:02:28.802Z,36.67
2018-11-07T03:04:58.557Z,29.57
2018-11-07T03:07:27.652Z,39.77
2018-11-07T03:09:57.061Z,83.47
2018-11-07T03:12:26.641Z,75.93
2018-11-07T03:14:55.856Z,69.50
2018-11-07T03:17:25.384Z,66.93
2018-11-07T03:19:54.930Z,50.03
2018-11-07T03:22:24.321Z,47.93
2018-11-07T03:24:53.889Z,43.23
2018-11-07T03:27:23.036Z,46.43
2018-11-07T03:29:52.573Z,44.53
2018-11-07T03:32:21.773Z,35.27
2018-11-07T03:34:50.938Z,39.27
2018-11-07T03:37:20.342Z,46.93
2018-11-07T03:39:49.899Z,58.83
2018-11-07T03:42:19.217Z,51.27
2018-11-07T03:44:48.565Z,40.77
2018-11-07T03:47:18.022Z,43.87
2018-11-07T03:49:47.183Z,36.43
2018-11-07T03:52:16.402Z,40.27
2018-11-07T03:54:45.936Z,49.97
2018-11-07T03:57:15.522Z,48.87
2018-11-07T03:59:44.547Z,36.07
2018-11-07T04:02:14.015Z,32.23
2018-11-07T04:04:43.375Z,37.37
2018-11-07T04:07:12.669Z,38.43
2018-11-07T04:09:41.875Z,39.00
2018-11-07T04:12:11.392Z,40.83
2018-11-07T04:14:40.688Z,38.90
2018-11-07T04:17:09.884Z,42.43
2018-11-07T04:19:39.132Z,47.70
2018-11-07T04:22:08.418Z,49.57
2018-11-07T04:24:38.670Z,47.50
2018-11-07T04:27:08.168Z,50.43
2018-11-07T04:29:37.587Z,92.00
2018-11-07T04:32:06.965Z,257.70
2018-11-07T04:34:36.371Z,447.70
2018-11-07T04:37:05.711Z,325.80
2018-11-07T04:39:34.951Z,243.67
2018-11-07T04:42:04.219Z,269.90
2018-11-07T04:44:33.534Z,228.93
2018-11-07T04:47:02.850Z,112.67
2018-11-07T04:49:32.176Z,74.50
2018-11-07T04:52:01.771Z,66.67
2018-11-07T04:54:31.225Z,64.77
2018-11-07T04:57:00.513Z,66.27
2018-11-07T04:59:29.876Z,64.83
2018-11-07T05:01:59.425Z,55.20
2018-11-07T05:04:28.778Z,57.20
2018-11-07T05:06:58.274Z,55.40
2018-11-07T05:09:27.676Z,51.20
2018-11-07T05:11:56.999Z,43.97
2018-11-07T05:14:26.381Z,46.23
2018-11-07T05:16:55.615Z,49.60
2018-11-07T05:19:24.870Z,56.83
2018-11-07T05:21:54.220Z,54.93
2018-11-07T05:24:23.655Z,60.23
2018-11-07T05:26:53.297Z,59.20
2018-11-07T05:29:22.512Z,59.73
2018-11-07T05:31:52.147Z,54.60
2018-11-07T05:34:21.343Z,60.17
2018-11-07T05:36:50.622Z,67.00
2018-11-07T05:39:20.052Z,75.87
2018-11-07T05:41:49.241Z,74.83
2018-11-07T05:44:18.233Z,73.10
2018-11-07T05:46:47.616Z,70.90
2018-11-07T05:49:17.133Z,71.70
2018-11-07T05:51:46.855Z,60.77
2018-11-07T05:54:16.428Z,60.03
2018-11-07T05:56:45.473Z,55.07
2018-11-07T05:59:14.712Z,57.57
2018-11-07T06:01:44.121Z,59.13
2018-11-07T06:04:13.184Z,55.30
2018-11-07T06:06:42.360Z,63.77
2018-11-07T06:09:11.430Z,73.03
2018-11-07T06:11:41.294Z,96.97
2018-11-07T06:14:10.726Z,98.73
2018-11-07T06:16:40.069Z,100.17
2018-11-07T06:19:09.401Z,118.50
2018-11-07T06:21:38.838Z,126.93
2018-11-07T06:24:08.615Z,112.87
2018-11-07T06:26:37.912Z,115.87
2018-11-07T06:29:07.241Z,123.17
2018-11-07T06:31:36.619Z,126.30
2018-11-07T06:34:06.082Z,122.60
2018-11-07T06:36:35.660Z,128.33
2018-11-07T06:39:06.642Z,131.90
2018-11-07T06:41:36.024Z,157.43
2018-11-07T06:44:05.566Z,165.70
2018-11-07T06:46:34.942Z,144.33
2018-11-07T06:49:04.162Z,123.80
2018-11-07T06:51:33.366Z,120.20
2018-11-07T06:54:02.841Z,118.60
2018-11-07T06:56:32.404Z,107.93
2018-11-07T06:59:01.564Z,110.83
2018-11-07T07:01:31.011Z,117.33
2018-11-07T07:04:00.157Z,114.47
2018-11-07T07:06:29.551Z,124.23
2018-11-07T07:08:59.089Z,106.40
2018-11-07T07:11:28.529Z,103.27
2018-11-07T07:13:57.864Z,97.30
2018-11-07T07:16:27.386Z,112.37
2018-11-07T07:18:56.474Z,91.17
2018-11-07T07:21:26.040Z,79.53
2018-11-07T07:23:55.145Z,87.93
2018-11-07T07:26:24.563Z,87.10
2018-11-07T07:28:53.795Z,83.90
2018-11-07T07:31:22.996Z,77.20
2018-11-07T07:33:52.298Z,69.03
2018-11-07T07:36:21.715Z,67.33
2018-11-07T07:38:51.068Z,58.50
2018-11-07T07:41:20.418Z,52.27
2018-11-07T07:43:49.446Z,104.73
2018-11-07T07:46:18.732Z,133.33
2018-11-07T07:48:47.987Z,174.43
2018-11-07T07:51:17.429Z,94.47
2018-11-07T07:53:46.618Z,71.87
2018-11-07T07:56:15.743Z,60.20
2018-11-07T07:58:44.987Z,45.53
2018-11-07T08:01:14.378Z,28.60
2018-11-07T08:03:43.842Z,92.57
2018-11-07T08:06:13.297Z,71.00
2018-11-07T08:08:43.162Z,19.80
2018-11-07T08:11:12.642Z,37.17
2018-11-07T08:13:42.078Z,37.70
2018-11-07T08:16:11.546Z,18.13
2018-11-07T08:18:41.032Z,24.20
2018-11-07T08:21:10.270Z,40.50
2018-11-07T08:23:39.785Z,38.57
2018-11-07T08:26:09.361Z,26.43
2018-11-07T08:28:38.995Z,25.37
2018-11-07T08:31:08.368Z,27.83
2018-11-07T08:33:37.488Z,26.00
2018-11-07T08:36:06.919Z,20.43
2018-11-07T08:38:36.865Z,23.23
2018-11-07T08:41:07.085Z,21.13
2018-11-07T08:43:36.570Z,23.73
2018-11-07T08:46:05.653Z,18.60
2018-11-07T08:48:34.875Z,19.07
2018-11-07T08:51:04.133Z,19.80
2018-11-07T08:53:33.538Z,23.03
2018-11-07T08:56:02.947Z,20.40
2018-11-07T08:58:32.298Z,23.93
2018-11-07T09:01:01.900Z,26.70
2018-11-07T09:03:31.452Z,27.07
2018-11-07T09:06:01.043Z,21.60
2018-11-07T09:08:30.441Z,19.50
2018-11-07T09:11:00.074Z,23.73
2018-11-07T09:13:29.618Z,22.27
2018-11-07T09:15:58.689Z,23.27
2018-11-07T09:18:28.237Z,20.00
2018-11-07T09:20:57.699Z,16.73
2018-11-07T09:23:27.067Z,17.37
2018-11-07T09:25:56.858Z,25.40
2018-11-07T09:28:26.381Z,20.07
2018-11-07T09:30:55.800Z,23.53
2018-11-07T09:33:25.120Z,18.50
2018-11-07T09:35:54.172Z,17.70
2018-11-07T09:38:23.512Z,18.27
2018-11-07T09:40:52.829Z,15.97
2018-11-07T09:43:21.996Z,15.40
2018-11-07T09:45:51.101Z,14.13
2018-11-07T09:48:20.207Z,15.10
2018-11-07T09:50:49.413Z,12.63
2018-11-07T09:53:18.630Z,14.57
2018-11-07T09:55:48.120Z,17.83
2018-11-07T09:58:17.521Z,17.97
2018-11-07T10:00:46.798Z,18.62
2018-11-07T10:03:16.157Z,17.67
2018-11-07T10:05:45.716Z,13.50
2018-11-07T10:08:15.100Z,12.88
2018-11-07T10:10:44.481Z,14.18
2018-11-07T10:13:14.004Z,14.63
2018-11-07T10:15:43.389Z,10.32
2018-11-07T10:18:12.960Z,10.95
2018-11-07T10:20:42.355Z,13.40
2018-11-07T10:23:11.903Z,9.78
2018-11-07T10:25:41.197Z,9.90
2018-11-07T10:28:10.890Z,11.90
2018-11-07T10:30:39.915Z,10.10
2018-11-07T10:33:09.159Z,9.88
2018-11-07T10:35:38.643Z,8.58
2018-11-07T10:38:07.934Z,11.83
2018-11-07T10:40:37.056Z,10.75
2018-11-07T10:43:06.545Z,12.28
2018-11-07T10:45:35.838Z,9.60
2018-11-07T10:48:05.258Z,10.50
2018-11-07T10:50:34.729Z,8.65
2018-11-07T10:53:03.900Z,7.58
2018-11-07T10:55:33.025Z,6.50
2018-11-07T10:58:02.328Z,7.28
2018-11-07T11:02:38.308Z,8.25
2018-11-07T11:05:07.461Z,5.33
2018-11-07T11:07:37.030Z,4.33
2018-11-07T11:10:06.191Z,4.58
2018-11-07T11:12:35.361Z,4.28
2018-11-07T11:15:04.700Z,4.40
2018-11-07T11:17:33.906Z,4.90
2018-11-07T11:20:03.439Z,3.60
2018-11-07T11:22:32.619Z,5.58
2018-11-07T11:25:01.899Z,5.35
2018-11-07T11:27:31.291Z,5.25
2018-11-07T11:30:00.707Z,4.20
2018-11-07T11:32:30.037Z,4.92
2018-11-07T11:34:59.503Z,5.00
2018-11-07T11:37:28.904Z,4.40
2018-11-07T11:39:58.184Z,5.97
2018-11-07T11:42:27.677Z,6.35
2018-11-07T11:44:56.857Z,4.55
2018-11-07T11:47:26.766Z,4.90
2018-11-07T11:49:56.335Z,7.80
2018-11-07T11:52:26.385Z,3.77
2018-11-07T11:54:55.948Z,5.17
2018-11-07T11:57:25.248Z,4.45
2018-11-07T11:59:54.875Z,4.37
2018-11-07T12:02:24.095Z,5.47
2018-11-07T12:04:53.904Z,5.95
2018-11-07T12:07:23.366Z,4.78
2018-11-07T12:09:53.044Z,6.67
2018-11-07T12:12:22.316Z,7.72
2018-11-07T12:14:51.591Z,6.33
2018-11-07T12:17:20.794Z,4.67
2018-11-07T12:19:49.969Z,6.08
2018-11-07T12:22:19.084Z,6.40
2018-11-07T12:24:48.600Z,4.95
2018-11-07T12:27:18.174Z,4.78
2018-11-07T12:29:47.780Z,4.08
2018-11-07T12:32:17.137Z,6.22
2018-11-07T12:34:46.232Z,4.87
2018-11-07T12:37:15.375Z,5.45
2018-11-07T12:39:44.715Z,3.90
2018-11-07T12:42:13.915Z,6.67
2018-11-07T12:44:43.304Z,7.17
2018-11-07T12:47:12.514Z,6.85
2018-11-07T12:49:41.843Z,5.70
2018-11-07T12:52:10.895Z,5.78
2018-11-07T12:54:40.392Z,5.37
2018-11-07T12:57:09.652Z,7.12
2018-11-07T12:59:38.874Z,6.33
2018-11-07T13:02:08.088Z,4.92
2018-11-07T13:04:37.654Z,7.10
2018-11-07T13:07:06.673Z,4.92
2018-11-07T13:09:35.888Z,5.20
2018-11-07T13:12:05.105Z,4.17
2018-11-07T13:14:34.145Z,4.92
2018-11-07T13:17:03.602Z,4.72
2018-11-07T13:19:32.988Z,4.72
2018-11-07T13:22:02.184Z,8.53
2018-11-07T13:24:31.590Z,7.22
2018-11-07T13:27:00.724Z,9.88
2018-11-07T13:29:30.035Z,9.05
2018-11-07T13:31:59.397Z,5.22
2018-11-07T13:34:28.990Z,7.65
2018-11-07T13:36:58.467Z,4.80
2018-11-07T13:39:27.695Z,5.62
2018-11-07T13:41:57.047Z,4.22
2018-11-07T13:44:26.455Z,6.05
2018-11-07T13:46:55.680Z,7.08
2018-11-07T13:49:25.914Z,8.87
2018-11-07T13:51:55.052Z,7.15
2018-11-07T13:54:24.411Z,7.17
2018-11-07T13:56:53.581Z,4.57
2018-11-07T13:59:23.270Z,8.27
2018-11-07T14:01:52.844Z,6.58
2018-11-07T14:04:22.325Z,9.00
2018-11-07T14:06:51.977Z,5.90
2018-11-07T14:09:21.430Z,8.97
2018-11-07T14:11:50.901Z,6.40
2018-11-07T14:14:20.194Z,9.20
2018-11-07T14:16:49.591Z,6.07
2018-11-07T14:19:18.900Z,6.07
2018-11-07T14:21:48.304Z,8.93
2018-11-07T14:24:17.713Z,7.73
2018-11-07T14:26:47.330Z,7.03
2018-11-07T14:29:16.818Z,10.90
2018-11-07T14:31:47.283Z,8.23
2018-11-07T14:34:16.736Z,9.90
2018-11-07T14:36:46.096Z,11.57
2018-11-07T14:39:15.397Z,10.63
2018-11-07T14:41:45.153Z,10.77
2018-11-07T14:44:14.138Z,10.77
2018-11-07T14:46:43.906Z,11.33
2018-11-07T14:49:13.473Z,12.97
2018-11-07T14:51:42.857Z,15.10
2018-11-07T14:54:12.388Z,22.07
2018-11-07T14:56:41.762Z,26.63
2018-11-07T14:59:11.028Z,20.60
2018-11-07T15:01:40.587Z,26.30
2018-11-07T15:04:10.053Z,46.23
2018-11-07T15:06:46.449Z,40.33
2018-11-07T15:09:15.849Z,58.07
2018-11-07T15:11:45.253Z,39.27
2018-11-07T15:14:14.464Z,54.00
2018-11-07T15:16:43.704Z,42.70
2018-11-07T15:19:13.320Z,39.93
2018-11-07T15:21:42.375Z,32.97
2018-11-07T15:24:11.594Z,31.17
2018-11-07T15:26:41.139Z,27.63
2018-11-07T15:29:10.651Z,30.30
2018-11-07T15:31:39.903Z,31.20
2018-11-07T15:34:09.529Z,41.03
2018-11-07T15:36:38.713Z,50.70
2018-11-07T15:39:09.272Z,40.97
2018-11-07T15:41:38.603Z,49.97
2018-11-07T15:44:08.165Z,41.73
2018-11-07T15:46:37.873Z,42.13
2018-11-07T15:49:07.354Z,35.97
2018-11-07T15:51:38.706Z,60.77
2018-11-07T15:54:08.796Z,62.93
2018-11-07T15:56:38.744Z,73.93
2018-11-07T15:59:09.967Z,64.07
2018-11-07T16:01:39.445Z,91.30
2018-11-07T16:04:08.653Z,91.70
2018-11-07T16:06:37.973Z,102.43
2018-11-07T16:09:09.453Z,168.90
2018-11-07T16:11:38.793Z,122.10
2018-11-07T16:14:08.236Z,131.17
2018-11-07T16:16:37.508Z,111.47
2018-11-07T16:19:06.873Z,107.83
2018-11-07T16:21:36.536Z,92.97
2018-11-07T16:24:06.836Z,105.20
2018-11-07T16:26:36.132Z,72.07
2018-11-07T16:29:05.632Z,82.87
2018-11-07T16:31:36.850Z,95.60
2018-11-07T16:34:06.899Z,103.23
2018-11-07T16:36:36.661Z,120.97
2018-11-07T16:39:08.384Z,184.50
2018-11-07T16:41:37.960Z,190.37
2018-11-07T16:44:07.752Z,213.40
2018-11-07T16:46:37.088Z,236.80
2018-11-07T16:49:06.229Z,212.13
2018-11-07T16:51:35.540Z,134.43
2018-11-07T16:54:05.736Z,114.47
2018-11-07T16:56:35.319Z,163.83
2018-11-07T16:59:05.893Z,179.50
2018-11-07T17:01:35.284Z,208.27
2018-11-07T17:04:05.540Z,211.50
2018-11-07T17:06:34.868Z,294.30
2018-11-07T17:09:04.621Z,230.63
2018-11-07T17:11:34.054Z,181.23
2018-11-07T17:14:04.021Z,185.83
2018-11-07T17:16:33.366Z,149.80
2018-11-07T17:19:02.874Z,150.60
2018-11-07T17:21:32.601Z,171.50
2018-11-07T17:24:02.027Z,162.07
2018-11-07T17:26:31.287Z,177.77
2018-11-07T17:29:01.007Z,181.97
2018-11-07T17:31:30.575Z,173.23
2018-11-07T17:34:00.024Z,132.83
2018-11-07T17:36:29.740Z,154.90
2018-11-07T17:38:59.155Z,147.33
2018-11-07T17:41:28.610Z,200.33
2018-11-07T17:43:57.717Z,210.87
2018-11-07T17:46:27.124Z,193.27
2018-11-07T17:48:56.878Z,187.23
2018-11-07T17:51:26.656Z,354.53
2018-11-07T17:53:55.764Z,239.80
2018-11-07T17:56:25.328Z,255.97
2018-11-07T17:58:54.910Z,261.97
2018-11-07T18:01:24.825Z,320.67
2018-11-07T18:03:54.509Z,307.20
2018-11-07T18:06:24.306Z,299.13
2018-11-07T18:08:53.971Z,276.23
2018-11-07T18:11:23.597Z,284.17
2018-11-07T18:13:53.024Z,336.13
2018-11-07T18:16:22.565Z,392.70
2018-11-07T18:18:52.195Z,378.40
2018-11-07T18:21:21.925Z,469.03
2018-11-07T18:23:50.999Z,489.50
2018-11-07T18:26:21.374Z,393.90
2018-11-07T18:28:54.113Z,360.03
2018-11-07T18:31:24.168Z,352.03
2018-11-07T18:33:53.965Z,365.30
2018-11-07T18:36:23.485Z,336.70
2018-11-07T18:38:54.342Z,312.87
2018-11-07T18:41:24.185Z,312.73
2018-11-07T18:43:54.135Z,298.10
2018-11-07T18:46:23.600Z,291.57
2018-11-07T18:48:52.913Z,259.43
2018-11-07T18:51:22.186Z,278.53
2018-11-07T18:53:52.385Z,279.40
2018-11-07T18:56:21.852Z,303.23
2018-11-07T18:58:51.122Z,304.90
2018-11-07T19:01:21.045Z,277.63
2018-11-07T19:03:50.553Z,275.67
2018-11-07T19:06:20.734Z,262.23
2018-11-07T19:08:49.885Z,263.43
2018-11-07T19:11:19.645Z,281.93
2018-11-07T19:13:49.401Z,267.63
2018-11-07T19:16:20.302Z,298.60
2018-11-07T19:18:49.886Z,302.10
2018-11-07T19:21:20.317Z,279.47
2018-11-07T19:23:49.559Z,267.93
2018-11-07T19:26:19.236Z,262.20
2018-11-07T19:28:51.073Z,243.07
2018-11-07T19:31:20.734Z,238.10
2018-11-07T19:33:50.312Z,224.60
2018-11-07T19:36:19.741Z,207.77
2018-11-07T19:38:49.049Z,218.77
2018-11-07T19:41:19.240Z,206.33
2018-11-07T19:43:48.798Z,187.57
2018-11-07T19:46:19.264Z,202.30
2018-11-07T19:48:49.003Z,199.27
2018-11-07T19:51:18.328Z,219.30
2018-11-07T19:53:47.884Z,196.67
2018-11-07T19:56:17.596Z,188.87
2018-11-07T19:58:47.111Z,184.77
2018-11-07T20:01:16.638Z,184.53
2018-11-07T20:03:46.219Z,175.53
2018-11-07T20:06:15.931Z,176.67
2018-11-07T20:08:45.521Z,184.07
2018-11-07T20:11:14.820Z,208.83
2018-11-07T20:13:44.382Z,187.10
2018-11-07T20:16:13.544Z,213.60
2018-11-07T20:18:43.009Z,189.63
2018-11-07T20:21:12.560Z,166.73
2018-11-07T20:23:41.684Z,187.27
2018-11-07T20:26:11.312Z,188.67
2018-11-07T20:28:40.999Z,228.67
2018-11-07T20:31:10.694Z,260.40
2018-11-07T20:33:40.299Z,264.60
2018-11-07T20:36:09.956Z,244.40
2018-11-07T20:38:39.045Z,231.67
2018-11-07T20:41:08.273Z,228.57
2018-11-07T20:43:37.854Z,193.80
2018-11-07T20:46:07.452Z,207.47
2018-11-07T20:48:37.277Z,209.87
2018-11-07T20:51:06.968Z,195.70
2018-11-07T20:53:36.319Z,187.77
2018-11-07T20:56:05.563Z,187.80
2018-11-07T20:58:34.804Z,175.40
2018-11-07T21:01:04.024Z,186.17
2018-11-07T21:03:33.531Z,191.20
2018-11-07T21:06:02.554Z,177.13
2018-11-07T21:08:31.895Z,187.13
2018-11-07T21:11:01.276Z,187.17
2018-11-07T21:13:30.545Z,196.57
2018-11-07T21:16:05.120Z,201.30
2018-11-07T21:18:34.266Z,203.10
2018-11-07T21:21:03.617Z,213.47
2018-11-07T21:23:33.085Z,216.30
2018-11-07T21:26:02.452Z,263.37
2018-11-07T21:28:31.865Z,226.83
2018-11-07T21:31:01.299Z,192.73
2018-11-07T21:33:30.803Z,183.47
2018-11-07T21:36:00.120Z,178.90
2018-11-07T21:38:29.369Z,189.00
2018-11-07T21:40:58.652Z,219.37
2018-11-07T21:43:27.770Z,185.37
2018-11-07T21:45:57.153Z,180.67
2018-11-07T21:48:26.670Z,186.17
2018-11-07T21:50:55.984Z,176.93
2018-11-07T21:53:25.204Z,164.67
2018-11-07T21:55:54.815Z,153.50
2018-11-07T21:58:24.013Z,162.90
2018-11-07T22:00:53.465Z,157.80
2018-11-07T22:03:22.928Z,145.07
2018-11-07T22:05:52.185Z,141.17
2018-11-07T22:08:21.553Z,145.10
2018-11-07T22:10:50.814Z,143.67
2018-11-07T22:13:20.392Z,144.37
2018-11-07T22:15:49.708Z,126.70
2018-11-07T22:18:19.077Z,125.40
2018-11-07T22:20:48.270Z,118.20
2018-11-07T22:23:17.607Z,126.47
2018-11-07T22:25:46.787Z,124.97
2018-11-07T22:28:16.184Z,126.43
2018-11-07T22:30:45.805Z,106.60
2018-11-07T22:33:15.002Z,111.23
2018-11-07T22:35:44.363Z,101.73
2018-11-07T22:38:13.613Z,98.70
2018-11-07T22:40:43.425Z,96.93
2018-11-07T22:43:12.728Z,98.37
2018-11-07T22:45:42.037Z,95.03
2018-11-07T22:48:11.665Z,106.27
2018-11-07T22:50:40.928Z,87.13
2018-11-07T22:53:10.173Z,94.07
2018-11-07T22:55:39.228Z,90.13
2018-11-07T22:58:08.865Z,95.03
2018-11-07T23:00:43.892Z,99.93
2018-11-07T23:03:13.294Z,87.50
2018-11-07T23:05:43.074Z,84.10
2018-11-07T23:08:12.482Z,83.23
2018-11-07T23:10:41.641Z,91.63
2018-11-07T23:13:10.937Z,83.13
2018-11-07T23:15:46.392Z,100.37
2018-11-07T23:18:15.916Z,83.70
2018-11-07T23:20:45.141Z,80.77
2018-11-07T23:23:14.883Z,85.03
2018-11-07T23:25:44.581Z,92.33
2018-11-07T23:28:13.801Z,85.87
2018-11-07T23:30:43.153Z,90.90
2018-11-07T23:33:12.466Z,82.43
2018-11-07T23:35:41.653Z,87.40
2018-11-07T23:38:10.827Z,78.27
2018-11-07T23:40:40.009Z,79.43
2018-11-07T23:43:09.426Z,75.23
2018-11-07T23:45:38.577Z,74.13
2018-11-07T23:48:08.221Z,70.70
2018-11-07T23:50:37.575Z,70.53
2018-11-07T23:53:07.029Z,71.77
2018-11-07T23:55:36.523Z,71.37
2018-11-07T23:58:05.763Z,72.20
